createdAt,value
2023-03-16T00:00:19.657Z,98605.24
2023-03-16T00:03:07.532Z,98606.49
2023-03-16T00:05:35.333Z,98605.70
2023-03-16T00:08:03.168Z,98608.38
2023-03-16T00:10:30.916Z,98609.40
2023-03-16T00:12:58.608Z,98607.57
2023-03-16T00:15:26.259Z,98609.49
2023-03-16T00:17:54.965Z,98610.04
2023-03-16T00:20:23.172Z,98609.40
2023-03-16T00:22:51.440Z,98611.70
2023-03-16T00:25:19.655Z,98610.19
2023-03-16T00:27:47.567Z,98611.40
2023-03-16T00:30:15.261Z,98616.66
2023-03-16T00:32:43.138Z,98617.35
2023-03-16T00:35:11.027Z,98613.02
2023-03-16T00:37:39.808Z,98612.78
2023-03-16T00:40:09.654Z,98613.58
2023-03-16T00:42:37.530Z,98612.52
2023-03-16T00:45:05.982Z,98616.64
2023-03-16T00:47:34.022Z,98619.33
2023-03-16T00:50:02.162Z,98616.95
2023-03-16T00:52:30.315Z,98615.98
2023-03-16T00:54:58.306Z,98615.18
2023-03-16T00:57:27.745Z,98617.58
2023-03-16T00:59:55.450Z,98614.23
2023-03-16T01:02:26.074Z,98617.66
2023-03-16T01:04:54.860Z,98622.33
2023-03-16T01:07:23.001Z,98619.02
2023-03-16T01:09:50.697Z,98617.78
2023-03-16T01:12:35.904Z,98618.23
2023-03-16T01:15:22.310Z,98619.71
2023-03-16T01:17:49.986Z,98622.95
2023-03-16T01:20:19.416Z,98625.59
2023-03-16T01:22:47.419Z,98622.70
2023-03-16T01:25:15.539Z,98630.17
2023-03-16T01:27:43.168Z,98628.67
2023-03-16T01:30:12.680Z,98630.64
2023-03-16T01:32:40.465Z,98634.04
2023-03-16T01:35:09.313Z,98634.46
2023-03-16T01:37:36.897Z,98632.20
2023-03-16T01:40:06.779Z,98628.55
2023-03-16T01:42:45.011Z,98631.91
2023-03-16T01:45:50.519Z,98632.52
2023-03-16T01:48:19.768Z,98633.00
2023-03-16T01:50:47.425Z,98630.29
2023-03-16T01:53:15.030Z,98631.67
2023-03-16T01:55:42.619Z,98632.02
2023-03-16T01:58:11.143Z,98633.50
2023-03-16T02:00:38.698Z,98638.95
2023-03-16T02:03:08.275Z,98639.70
2023-03-16T02:05:38.993Z,98643.35
2023-03-16T02:08:06.675Z,98641.29
2023-03-16T02:10:34.675Z,98650.38
2023-03-16T02:13:03.659Z,98649.95
2023-03-16T02:15:31.705Z,98651.10
2023-03-16T02:18:00.353Z,98655.08
2023-03-16T02:20:43.713Z,98662.25
2023-03-16T02:23:18.557Z,98662.09
2023-03-16T02:26:04.310Z,98668.26
2023-03-16T02:28:38.993Z,98674.56
2023-03-16T02:31:06.618Z,98679.45
2023-03-16T02:33:35.017Z,98681.23
2023-03-16T02:36:02.956Z,98683.96
2023-03-16T02:38:31.707Z,98682.09
2023-03-16T02:41:19.330Z,98691.77
2023-03-16T02:43:48.987Z,98694.02
2023-03-16T02:46:16.590Z,98691.07
2023-03-16T02:49:25.317Z,98695.95
2023-03-16T02:51:53.088Z,98698.64
2023-03-16T02:54:20.690Z,98702.55
2023-03-16T02:56:48.277Z,98707.66
2023-03-16T02:59:16.137Z,98706.30
2023-03-16T03:01:43.724Z,98709.85
2023-03-16T03:04:11.452Z,98717.14
2023-03-16T03:06:39.285Z,98720.66
2023-03-16T03:09:07.397Z,98720.02
2023-03-16T03:11:35.123Z,98720.20
2023-03-16T03:14:03.966Z,98721.33
2023-03-16T03:16:31.634Z,98722.13
2023-03-16T03:18:59.442Z,98725.91
2023-03-16T03:21:27.250Z,98726.40
2023-03-16T03:23:54.852Z,98733.25
2023-03-16T03:26:22.626Z,98738.16
2023-03-16T03:28:50.195Z,98745.36
2023-03-16T03:31:19.239Z,98742.04
2023-03-16T03:33:46.873Z,98744.66
2023-03-16T03:36:14.619Z,98747.17
2023-03-16T03:38:42.223Z,98755.78
2023-03-16T03:41:09.914Z,98759.54
2023-03-16T03:43:37.499Z,98761.35
2023-03-16T03:46:05.400Z,98762.94
2023-03-16T03:48:33.849Z,98759.88
2023-03-16T03:51:02.140Z,98763.91
2023-03-16T03:53:29.744Z,98763.45
2023-03-16T03:55:57.498Z,98762.84
2023-03-16T03:58:25.132Z,98764.53
2023-03-16T04:00:52.760Z,98765.02
2023-03-16T04:03:20.658Z,98765.09
2023-03-16T04:05:48.442Z,98770.89
2023-03-16T04:08:16.017Z,98771.48
2023-03-16T04:10:43.627Z,98769.75
2023-03-16T04:13:11.216Z,98765.69
2023-03-16T04:15:38.835Z,98761.21
2023-03-16T04:18:06.461Z,98762.92
2023-03-16T04:20:34.045Z,98764.34
2023-03-16T04:23:01.723Z,98764.82
2023-03-16T04:25:30.716Z,98769.39
2023-03-16T04:27:58.507Z,98769.90
2023-03-16T04:30:26.456Z,98769.10
2023-03-16T04:32:54.325Z,98772.38
2023-03-16T04:35:22.331Z,98773.95
2023-03-16T04:37:49.980Z,98768.53
2023-03-16T04:40:17.903Z,98776.47
2023-03-16T04:42:45.938Z,98774.13
2023-03-16T04:45:14.241Z,98771.25
2023-03-16T04:47:41.932Z,98778.48
2023-03-16T04:50:10.554Z,98781.80
2023-03-16T04:52:38.792Z,98783.04
2023-03-16T04:55:06.808Z,98784.35
2023-03-16T04:57:35.205Z,98784.48
2023-03-16T05:00:09.850Z,98787.09
2023-03-16T05:02:37.862Z,98799.63
2023-03-16T05:05:06.101Z,98798.20
2023-03-16T05:07:33.707Z,98804.11
2023-03-16T05:10:01.318Z,98810.35
2023-03-16T05:12:29.050Z,98816.08
2023-03-16T05:14:57.366Z,98818.59
2023-03-16T05:17:25.095Z,98820.66
2023-03-16T05:19:52.707Z,98824.47
2023-03-16T05:22:20.306Z,98823.33
2023-03-16T05:24:48.126Z,98827.80
2023-03-16T05:27:15.784Z,98825.52
2023-03-16T05:29:46.313Z,98827.42
2023-03-16T05:32:14.114Z,98829.08
2023-03-16T05:34:43.377Z,98829.55
2023-03-16T05:37:11.152Z,98832.97
2023-03-16T05:39:38.845Z,98836.69
2023-03-16T05:42:06.704Z,98836.95
2023-03-16T05:44:34.638Z,98835.98
2023-03-16T05:47:02.432Z,98837.30
2023-03-16T05:49:30.097Z,98841.48
2023-03-16T05:51:57.687Z,98845.70
2023-03-16T05:54:25.285Z,98850.77
2023-03-16T05:56:52.919Z,98850.25
2023-03-16T05:59:20.718Z,98847.99
2023-03-16T06:01:50.202Z,98853.06
2023-03-16T06:04:17.957Z,98852.59
2023-03-16T06:06:45.717Z,98853.16
2023-03-16T06:09:13.319Z,98855.90
2023-03-16T06:11:40.978Z,98858.36
2023-03-16T06:14:08.630Z,98861.80
2023-03-16T06:16:36.315Z,98866.73
2023-03-16T06:19:03.996Z,98869.70
2023-03-16T06:21:31.653Z,98870.77
2023-03-16T06:23:59.485Z,98874.65
2023-03-16T06:26:27.316Z,98876.84
2023-03-16T06:28:55.091Z,98882.68
2023-03-16T06:31:22.977Z,98880.01
2023-03-16T06:33:50.642Z,98878.74
2023-03-16T06:36:18.428Z,98879.15
2023-03-16T06:38:46.079Z,98879.25
2023-03-16T06:41:14.447Z,98882.13
2023-03-16T06:43:42.727Z,98885.47
2023-03-16T06:46:11.295Z,98888.90
2023-03-16T06:48:39.340Z,98891.40
2023-03-16T06:51:07.974Z,98895.10
2023-03-16T06:53:35.851Z,98894.40
2023-03-16T06:56:03.718Z,98896.03
2023-03-16T06:58:31.341Z,98897.39
2023-03-16T07:01:02.295Z,98900.39
2023-03-16T07:03:30.251Z,98902.06
2023-03-16T07:06:16.496Z,98902.32
2023-03-16T07:08:45.536Z,98909.31
2023-03-16T07:11:20.902Z,98910.10
2023-03-16T07:13:51.866Z,98910.14
2023-03-16T07:16:22.174Z,98909.34
2023-03-16T07:18:52.389Z,98910.33
2023-03-16T07:21:21.688Z,98912.16
2023-03-16T07:23:51.732Z,98908.17
2023-03-16T07:26:19.794Z,98906.06
2023-03-16T07:28:48.043Z,98908.19
2023-03-16T07:31:16.660Z,98911.50
2023-03-16T07:33:45.136Z,98917.98
2023-03-16T07:36:13.813Z,98915.88
2023-03-16T07:38:42.626Z,98915.55
2023-03-16T07:41:14.147Z,98914.95
2023-03-16T07:43:45.397Z,98924.30
2023-03-16T07:46:13.923Z,98921.95
2023-03-16T07:48:44.078Z,98923.08
2023-03-16T07:51:13.710Z,98923.12
2023-03-16T07:53:41.718Z,98919.48
2023-03-16T07:56:10.573Z,98919.02
2023-03-16T07:58:41.947Z,98920.61
2023-03-16T08:01:11.797Z,98915.59
2023-03-16T08:03:42.126Z,98914.28
2023-03-16T08:06:12.181Z,98918.38
2023-03-16T08:08:40.968Z,98919.29
2023-03-16T08:11:09.004Z,98922.91
2023-03-16T08:13:38.033Z,98924.89
2023-03-16T08:16:10.501Z,98927.66
2023-03-16T08:18:39.280Z,98923.20
2023-03-16T08:21:08.663Z,98928.09
2023-03-16T08:23:37.469Z,98929.11
2023-03-16T08:26:09.348Z,98928.56
2023-03-16T08:28:38.565Z,98929.62
2023-03-16T08:31:07.677Z,98930.52
2023-03-16T08:33:38.652Z,98926.82
2023-03-16T08:36:08.629Z,98932.77
2023-03-16T08:38:37.238Z,98932.42
2023-03-16T08:41:08.476Z,98935.10
2023-03-16T08:43:37.643Z,98932.10
2023-03-16T08:46:06.753Z,98932.02
2023-03-16T08:48:38.080Z,98937.75
2023-03-16T08:51:06.385Z,98936.34
2023-03-16T08:53:36.754Z,98935.25
2023-03-16T08:56:06.390Z,98942.88
2023-03-16T08:58:38.748Z,98947.21
2023-03-16T09:01:09.186Z,98949.39
2023-03-16T09:03:38.806Z,98953.34
2023-03-16T09:06:09.761Z,98952.44
2023-03-16T09:08:39.676Z,98952.43
2023-03-16T09:11:11.084Z,98956.46
2023-03-16T09:13:39.450Z,98956.68
2023-03-16T09:16:12.141Z,98954.14
2023-03-16T09:18:42.926Z,98955.98
2023-03-16T09:21:13.945Z,98954.50
2023-03-16T09:23:43.164Z,98955.16
2023-03-16T09:26:12.574Z,98957.52
2023-03-16T09:28:42.467Z,98959.05
2023-03-16T09:31:15.871Z,98956.91
2023-03-16T09:33:44.435Z,98963.33
2023-03-16T09:36:13.757Z,98958.10
2023-03-16T09:38:45.786Z,98956.40
2023-03-16T09:41:35.473Z,98957.30
2023-03-16T09:44:22.722Z,98957.10
2023-03-16T09:46:51.772Z,98955.61
2023-03-16T09:49:22.125Z,98953.66
2023-03-16T09:51:53.169Z,98959.20
2023-03-16T09:54:46.100Z,98954.20
2023-03-16T09:57:47.368Z,98955.67
2023-03-16T10:00:33.820Z,98955.75
2023-03-16T10:03:14.986Z,98955.24
2023-03-16T10:05:49.142Z,98955.48
2023-03-16T10:08:24.953Z,98956.56
2023-03-16T10:11:06.049Z,98959.84
2023-03-16T10:13:47.711Z,98964.58
2023-03-16T10:16:33.901Z,98963.84
2023-03-16T10:19:28.496Z,98962.14
2023-03-16T10:21:57.949Z,98968.76
2023-03-16T10:24:54.408Z,98965.77
2023-03-16T10:27:31.096Z,98964.02
2023-03-16T10:30:01.720Z,98968.41
2023-03-16T10:32:32.628Z,98969.60
2023-03-16T10:35:07.146Z,98970.81
2023-03-16T10:37:35.703Z,98966.30
2023-03-16T10:40:09.368Z,98955.02
2023-03-16T10:42:41.717Z,98959.00
2023-03-16T10:45:23.031Z,98959.84
2023-03-16T10:47:51.906Z,98959.00
2023-03-16T10:50:25.510Z,98961.23
2023-03-16T10:52:54.503Z,98967.55
2023-03-16T10:55:24.690Z,98973.54
2023-03-16T10:57:55.266Z,98971.58
2023-03-16T11:00:27.040Z,98970.85
2023-03-16T11:02:57.222Z,98966.59
2023-03-16T11:05:28.995Z,98970.22
2023-03-16T11:08:02.647Z,98968.71
2023-03-16T11:10:46.074Z,98969.34
2023-03-16T11:13:31.309Z,98958.77
2023-03-16T11:16:14.017Z,98956.38
2023-03-16T11:18:44.938Z,98962.35
2023-03-16T11:21:17.278Z,98960.72
2023-03-16T11:23:49.848Z,98950.61
2023-03-16T11:26:31.369Z,98948.39
2023-03-16T11:29:38.900Z,98947.09
2023-03-16T11:32:20.548Z,98941.82
2023-03-16T11:34:49.410Z,98942.47
2023-03-16T11:37:43.844Z,98936.80
2023-03-16T11:40:29.170Z,98934.56
2023-03-16T11:43:06.448Z,98933.00
2023-03-16T11:45:43.481Z,98929.48
2023-03-16T11:48:36.656Z,98930.00
2023-03-16T11:51:08.726Z,98932.38
2023-03-16T11:53:50.942Z,98932.63
2023-03-16T11:56:27.605Z,98930.61
2023-03-16T11:58:58.747Z,98936.17
2023-03-16T12:02:00.804Z,98938.98
2023-03-16T12:04:41.353Z,98933.25
2023-03-16T12:07:37.811Z,98933.70
2023-03-16T12:10:13.965Z,98926.70
2023-03-16T12:13:01.356Z,98936.15
2023-03-16T12:15:33.368Z,98936.20
2023-03-16T12:18:13.337Z,98934.36
2023-03-16T12:20:54.501Z,98928.88
2023-03-16T12:23:34.628Z,98930.09
2023-03-16T12:26:04.230Z,98931.43
2023-03-16T12:28:33.607Z,98929.73
2023-03-16T12:31:15.562Z,98926.96
2023-03-16T12:33:44.211Z,98925.23
2023-03-16T12:36:35.666Z,98928.21
2023-03-16T12:39:15.771Z,98924.81
2023-03-16T12:41:50.457Z,98921.83
2023-03-16T12:44:26.788Z,98916.00
2023-03-16T12:47:15.400Z,98915.16
2023-03-16T12:49:44.218Z,98916.00
2023-03-16T12:52:15.900Z,98918.53
2023-03-16T12:54:54.891Z,98915.26
2023-03-16T12:57:27.207Z,98921.56
2023-03-16T12:59:59.268Z,98924.56
2023-03-16T13:02:34.972Z,98926.40
2023-03-16T13:05:13.634Z,98924.08
2023-03-16T13:07:52.355Z,98926.12
2023-03-16T13:10:21.288Z,98925.45
2023-03-16T13:12:51.687Z,98922.80
2023-03-16T13:15:29.644Z,98923.80
2023-03-16T13:18:10.017Z,98926.23
2023-03-16T13:20:58.226Z,98929.71
2023-03-16T13:23:56.075Z,98932.12
2023-03-16T13:26:30.700Z,98928.58
2023-03-16T13:28:59.176Z,98925.63
2023-03-16T13:31:39.084Z,98922.41
2023-03-16T13:34:11.845Z,98928.02
2023-03-16T13:36:45.201Z,98926.71
2023-03-16T13:39:41.851Z,98926.02
2023-03-16T13:42:17.949Z,98929.71
2023-03-16T13:44:49.079Z,98930.98
2023-03-16T13:47:20.260Z,98926.05
2023-03-16T13:49:53.885Z,98921.29
2023-03-16T13:52:31.078Z,98915.73
2023-03-16T13:55:01.198Z,98912.50
2023-03-16T13:57:35.775Z,98914.58
2023-03-16T14:00:27.718Z,98911.95
2023-03-16T14:02:57.670Z,98915.13
2023-03-16T14:05:30.894Z,98921.73
2023-03-16T14:08:01.185Z,98921.35
2023-03-16T14:10:34.368Z,98919.23
2023-03-16T14:13:25.691Z,98918.42
2023-03-16T14:15:54.737Z,98920.46
2023-03-16T14:18:49.596Z,98921.70
2023-03-16T14:21:22.170Z,98924.23
2023-03-16T14:23:55.234Z,98922.66
2023-03-16T14:26:23.723Z,98919.81
2023-03-16T14:29:15.028Z,98920.36
2023-03-16T14:31:42.738Z,98918.95
2023-03-16T14:34:29.028Z,98922.08
2023-03-16T14:37:07.795Z,98920.83
2023-03-16T14:39:35.506Z,98921.85
2023-03-16T14:42:05.009Z,98923.52
2023-03-16T14:44:34.856Z,98921.18
2023-03-16T14:47:04.283Z,98921.19
2023-03-16T14:49:38.644Z,98920.31
2023-03-16T14:52:09.370Z,98914.55
2023-03-16T14:54:37.466Z,98926.64
2023-03-16T14:57:08.315Z,98925.52
2023-03-16T14:59:36.446Z,98923.69
2023-03-16T15:02:06.934Z,98918.44
2023-03-16T15:04:34.941Z,98919.75
2023-03-16T15:07:08.848Z,98924.15
2023-03-16T15:09:39.184Z,98926.77
2023-03-16T15:12:17.994Z,98926.77
2023-03-16T15:15:04.725Z,98932.25
2023-03-16T15:17:33.083Z,98924.14
2023-03-16T15:20:01.273Z,98924.61
2023-03-16T15:22:33.521Z,98923.84
2023-03-16T15:25:05.788Z,98922.03
2023-03-16T15:27:35.800Z,98921.23
2023-03-16T15:30:06.502Z,98926.38
2023-03-16T15:32:34.233Z,98928.04
2023-03-16T15:35:01.858Z,98927.02
2023-03-16T15:37:32.615Z,98924.45
2023-03-16T15:40:02.826Z,98929.57
2023-03-16T15:42:30.929Z,98930.50
2023-03-16T15:44:58.539Z,98927.71
2023-03-16T15:47:26.664Z,98929.37
2023-03-16T15:49:54.242Z,98932.80
2023-03-16T15:52:26.786Z,98928.35
2023-03-16T15:54:57.335Z,98930.38
2023-03-16T15:57:25.437Z,98937.05
2023-03-16T15:59:53.765Z,98936.32
2023-03-16T16:02:31.297Z,98936.88
2023-03-16T16:04:59.150Z,98939.34
2023-03-16T16:07:27.377Z,98939.94
2023-03-16T16:09:55.363Z,98936.73
2023-03-16T16:12:32.554Z,98939.44
2023-03-16T16:15:00.327Z,98943.30
2023-03-16T16:17:43.912Z,98948.84
2023-03-16T16:20:38.026Z,98951.22
2023-03-16T16:23:05.712Z,98947.41
2023-03-16T16:25:36.569Z,98946.20
2023-03-16T16:28:12.831Z,98955.66
2023-03-16T16:30:41.594Z,98956.85
2023-03-16T16:33:28.509Z,98957.52
2023-03-16T16:35:57.826Z,98959.96
2023-03-16T16:38:25.501Z,98961.35
2023-03-16T16:40:53.840Z,98966.38
2023-03-16T16:43:48.057Z,98967.95
2023-03-16T16:46:21.185Z,98974.34
2023-03-16T16:48:59.918Z,98969.14
2023-03-16T16:51:28.944Z,98976.98
2023-03-16T16:53:57.787Z,98978.77
2023-03-16T16:56:35.221Z,98973.04
2023-03-16T16:59:13.492Z,98977.89
2023-03-16T17:01:41.904Z,98978.13
2023-03-16T17:04:15.094Z,98977.36
2023-03-16T17:06:43.504Z,98980.89
2023-03-16T17:09:14.228Z,98980.24
2023-03-16T17:11:42.158Z,98981.12
2023-03-16T17:14:23.915Z,98983.96
2023-03-16T17:17:06.985Z,98991.83
2023-03-16T17:19:34.714Z,98996.17
2023-03-16T17:22:02.445Z,98994.14
2023-03-16T17:24:31.420Z,98996.98
2023-03-16T17:26:59.512Z,98998.60
2023-03-16T17:29:31.733Z,99001.77
2023-03-16T17:32:04.161Z,99004.75
2023-03-16T17:34:32.729Z,99000.55
2023-03-16T17:37:01.990Z,99000.10
2023-03-16T17:39:56.264Z,98998.48
2023-03-16T17:42:26.610Z,98998.14
2023-03-16T17:44:54.508Z,99000.73
2023-03-16T17:47:23.954Z,99000.30
2023-03-16T17:49:51.898Z,99005.95
2023-03-16T17:52:23.268Z,99014.96
2023-03-16T17:54:52.274Z,99012.13
2023-03-16T17:57:25.576Z,99013.64
2023-03-16T17:59:53.298Z,99017.26
2023-03-16T18:02:41.168Z,99020.34
2023-03-16T18:05:17.464Z,99020.88
2023-03-16T18:07:45.287Z,99022.74
2023-03-16T18:10:24.785Z,99020.60
2023-03-16T18:12:59.115Z,99020.00
2023-03-16T18:15:29.410Z,99028.55
2023-03-16T18:17:57.681Z,99026.21
2023-03-16T18:20:35.612Z,99025.16
2023-03-16T18:23:21.102Z,99025.20
2023-03-16T18:25:50.900Z,99023.58
2023-03-16T18:28:19.143Z,99029.30
2023-03-16T18:30:48.217Z,99031.11
2023-03-16T18:33:19.022Z,99033.08
2023-03-16T18:35:46.667Z,99036.55
2023-03-16T18:38:21.282Z,99036.63
2023-03-16T18:40:49.470Z,99041.04
2023-03-16T18:43:17.346Z,99040.98
2023-03-16T18:45:46.013Z,99035.17
2023-03-16T18:48:29.383Z,99039.73
2023-03-16T18:50:57.662Z,99051.30
2023-03-16T18:53:25.540Z,99047.80
2023-03-16T18:55:55.627Z,99051.38
2023-03-16T18:58:24.914Z,99052.56
2023-03-16T19:00:55.042Z,99054.22
2023-03-16T19:03:27.554Z,99054.15
2023-03-16T19:05:56.392Z,99057.44
2023-03-16T19:08:24.582Z,99058.86
2023-03-16T19:10:53.979Z,99055.56
2023-03-16T19:13:22.749Z,99058.88
2023-03-16T19:15:52.118Z,99053.94
2023-03-16T19:18:20.138Z,99060.30
2023-03-16T19:20:50.150Z,99061.64
2023-03-16T19:23:19.735Z,99067.81
2023-03-16T19:25:47.639Z,99072.84
2023-03-16T19:28:26.214Z,99071.61
2023-03-16T19:30:54.962Z,99072.52
2023-03-16T19:33:26.102Z,99073.98
2023-03-16T19:35:54.909Z,99076.27
2023-03-16T19:38:23.864Z,99078.88
2023-03-16T19:40:59.160Z,99078.08
2023-03-16T19:43:29.737Z,99081.40
2023-03-16T19:45:57.589Z,99079.71
2023-03-16T19:48:31.192Z,99082.51
2023-03-16T19:50:59.094Z,99077.84
2023-03-16T19:53:27.420Z,99078.08
2023-03-16T19:55:55.419Z,99082.42
2023-03-16T19:58:29.343Z,99087.59
2023-03-16T20:00:58.154Z,99085.22
2023-03-16T20:03:26.190Z,99088.73
2023-03-16T20:05:53.863Z,99088.79
2023-03-16T20:08:26.352Z,99081.48
2023-03-16T20:11:05.841Z,99080.17
2023-03-16T20:13:34.313Z,99087.04
2023-03-16T20:16:03.352Z,99084.70
2023-03-16T20:18:31.050Z,99083.92
2023-03-16T20:20:58.673Z,99080.77
2023-03-16T20:23:28.144Z,99079.64
2023-03-16T20:26:02.160Z,99077.16
2023-03-16T20:28:35.991Z,99083.63
2023-03-16T20:31:08.042Z,99088.13
2023-03-16T20:33:36.429Z,99090.62
2023-03-16T20:36:04.494Z,99091.91
2023-03-16T20:38:32.126Z,99093.92
2023-03-16T20:40:59.877Z,99089.75
2023-03-16T20:43:29.303Z,99090.95
2023-03-16T20:45:59.155Z,99092.09
2023-03-16T20:48:27.548Z,99089.61
2023-03-16T20:50:56.037Z,99093.27
2023-03-16T20:53:24.051Z,99096.38
2023-03-16T20:55:51.755Z,99095.82
2023-03-16T20:58:21.639Z,99095.98
2023-03-16T21:00:50.625Z,99095.21
2023-03-16T21:03:20.731Z,99094.25
2023-03-16T21:05:52.025Z,99096.52
2023-03-16T21:08:20.555Z,99093.34
2023-03-16T21:10:49.164Z,99097.43
2023-03-16T21:13:31.191Z,99093.11
2023-03-16T21:16:01.709Z,99092.06
2023-03-16T21:18:30.531Z,99094.17
2023-03-16T21:20:58.933Z,99096.11
2023-03-16T21:23:26.744Z,99095.16
2023-03-16T21:26:00.565Z,99100.34
2023-03-16T21:28:28.868Z,99097.35
2023-03-16T21:30:57.567Z,99103.51
2023-03-16T21:33:35.056Z,99099.33
2023-03-16T21:36:04.421Z,99103.55
2023-03-16T21:38:32.386Z,99102.62
2023-03-16T21:41:00.862Z,99099.01
2023-03-16T21:43:28.588Z,99101.73
2023-03-16T21:45:57.093Z,99101.67
2023-03-16T21:48:28.212Z,99100.70
2023-03-16T21:50:55.870Z,99095.46
2023-03-16T21:53:27.220Z,99094.16
2023-03-16T21:55:55.971Z,99091.99
2023-03-16T21:58:23.940Z,99087.42
2023-03-16T22:00:52.295Z,99087.45
2023-03-16T22:03:25.110Z,99086.68
2023-03-16T22:05:53.975Z,99081.34
2023-03-16T22:08:42.576Z,99078.30
2023-03-16T22:11:18.107Z,99080.82
2023-03-16T22:13:46.613Z,99075.85
2023-03-16T22:16:16.081Z,99070.73
2023-03-16T22:18:44.814Z,99072.48
2023-03-16T22:21:31.467Z,99074.03
2023-03-16T22:23:59.414Z,99073.40
2023-03-16T22:26:27.741Z,99072.27
2023-03-16T22:28:56.352Z,99069.11
2023-03-16T22:31:38.727Z,99066.75
2023-03-16T22:34:06.820Z,99066.85
2023-03-16T22:36:34.517Z,99059.86
2023-03-16T22:39:05.505Z,99061.40
2023-03-16T22:41:33.242Z,99056.92
2023-03-16T22:44:01.754Z,99058.67
2023-03-16T22:46:29.654Z,99055.98
2023-03-16T22:48:57.341Z,99049.96
2023-03-16T22:51:27.676Z,99051.77
2023-03-16T22:53:57.911Z,99052.33
2023-03-16T22:56:26.409Z,99042.00
2023-03-16T22:58:55.759Z,99043.41
2023-03-16T23:01:41.242Z,99043.23
2023-03-16T23:04:19.980Z,99047.21
2023-03-16T23:06:52.803Z,99052.88
2023-03-16T23:09:21.952Z,99051.58
2023-03-16T23:11:54.100Z,99055.26
2023-03-16T23:14:24.214Z,99057.90
2023-03-16T23:16:52.751Z,99061.21
2023-03-16T23:19:25.424Z,99064.51
2023-03-16T23:21:54.792Z,99068.08
2023-03-16T23:24:22.464Z,99071.20
2023-03-16T23:26:50.670Z,99069.46
2023-03-16T23:29:18.315Z,99075.16
2023-03-16T23:31:46.686Z,99075.35
2023-03-16T23:34:19.277Z,99080.24
2023-03-16T23:36:47.294Z,99078.21
2023-03-16T23:39:14.942Z,99075.38
2023-03-16T23:41:44.500Z,99076.86
2023-03-16T23:44:15.926Z,99078.33
2023-03-16T23:46:44.557Z,99078.42
2023-03-16T23:49:19.991Z,99078.56
2023-03-16T23:51:47.662Z,99073.59
2023-03-16T23:54:19.050Z,99077.05
2023-03-16T23:56:47.169Z,99071.04
2023-03-16T23:59:14.920Z,99071.58
